Divide, Illinois
Current Conditions -  °F | °C
As of 11:15 AM on Monday 22 Dec 2014 (Local Time) from KMVN Reporting Station
Overcast Overcast  
Wind Chill: 37°   Ceiling: 600
Heat Index: 43°   Visibility: 3mi
Dew Point: 39°   Wind: 9mph
Humidity: 87%   Direction: 80°E
Pressure: 29.75"   Gusts: NA
Location:  38.4295°N, 88.8612°W
Report Text: KMVN 221715Z AUTO 08008KT 3SM OVC006 06/04 A2975 RMK AO1
Loading
Personal Weather Stations






























Interactive Weather Map New forecast layout! Learn more

10-Day Weather Forecast

Advertisements
Track Severe Weather on mobile